createdAt,value
2023-02-19T00:00:56.089Z,1.04
2023-02-19T00:01:56.188Z,1.04
2023-02-19T00:02:56.305Z,1.04
2023-02-19T00:03:56.440Z,1.04
2023-02-19T00:04:56.634Z,1.04
2023-02-19T00:05:56.689Z,1.04
2023-02-19T00:06:56.790Z,1.04
2023-02-19T00:07:57.176Z,1.04
2023-02-19T00:08:57.046Z,1.04
2023-02-19T00:09:57.199Z,1.04
2023-02-19T00:10:57.350Z,1.04
2023-02-19T00:11:57.455Z,1.04
2023-02-19T00:12:57.556Z,1.04
2023-02-19T00:13:57.671Z,1.04
2023-02-19T00:14:57.802Z,1.04
2023-02-19T00:15:58.008Z,1.04
2023-02-19T00:16:58.066Z,1.04
2023-02-19T00:17:58.154Z,1.04
2023-02-19T00:18:58.257Z,1.04
2023-02-19T00:19:58.366Z,1.04
2023-02-19T00:20:58.463Z,1.04
2023-02-19T00:21:58.626Z,1.04
2023-02-19T00:22:58.711Z,1.04
2023-02-19T00:23:58.812Z,1.04
2023-02-19T00:24:58.924Z,1.04
2023-02-19T00:26:03.264Z,1.04
2023-02-19T00:26:59.166Z,1.04
2023-02-19T00:27:59.332Z,1.04
2023-02-19T00:28:59.421Z,1.04
2023-02-19T00:29:59.605Z,1.04
2023-02-19T00:30:59.797Z,1.04
2023-02-19T00:31:59.961Z,1.04
2023-02-19T00:32:59.986Z,1.04
2023-02-19T00:34:00.138Z,1.04
2023-02-19T00:35:00.249Z,1.04
2023-02-19T00:36:00.335Z,1.04
2023-02-19T00:37:00.499Z,1.04
2023-02-19T00:38:00.585Z,1.04
2023-02-19T00:39:00.695Z,1.04
2023-02-19T00:40:00.834Z,1.04
2023-02-19T00:41:00.991Z,1.04
2023-02-19T00:42:01.153Z,1.04
2023-02-19T00:43:01.256Z,1.04
2023-02-19T00:44:01.399Z,1.04
2023-02-19T00:45:01.550Z,1.04
2023-02-19T00:46:01.699Z,1.04
2023-02-19T00:47:01.819Z,1.04
2023-02-19T00:48:01.908Z,1.04
2023-02-19T00:49:02.013Z,1.04
2023-02-19T00:50:02.166Z,1.04
2023-02-19T00:51:02.256Z,1.04
2023-02-19T00:52:02.375Z,1.04
2023-02-19T00:53:02.533Z,1.04
2023-02-19T00:54:02.672Z,1.04
2023-02-19T00:55:02.770Z,1.04
2023-02-19T00:56:02.921Z,1.04
2023-02-19T00:57:03.066Z,1.04
2023-02-19T00:58:03.180Z,1.04
2023-02-19T00:59:03.271Z,1.04
2023-02-19T01:00:03.371Z,1.04
2023-02-19T01:01:03.482Z,1.04
2023-02-19T01:02:03.573Z,1.04
2023-02-19T01:03:03.682Z,1.04
2023-02-19T01:04:06.257Z,1.04
2023-02-19T01:05:03.880Z,1.04
2023-02-19T01:06:04.035Z,1.04
2023-02-19T01:07:04.128Z,1.04
2023-02-19T01:08:04.292Z,1.04
2023-02-19T01:09:04.421Z,1.04
2023-02-19T01:10:04.539Z,1.04
2023-02-19T01:11:04.649Z,1.04
2023-02-19T01:12:04.744Z,1.04
2023-02-19T01:13:04.898Z,1.04
2023-02-19T01:14:05.154Z,1.04
2023-02-19T01:15:05.096Z,1.04
2023-02-19T01:16:05.190Z,1.04
2023-02-19T01:17:05.344Z,1.04
2023-02-19T01:18:05.441Z,1.04
2023-02-19T01:19:05.546Z,1.04
2023-02-19T01:20:05.646Z,1.04
2023-02-19T01:21:05.780Z,1.04
2023-02-19T01:22:05.897Z,1.04
2023-02-19T01:23:06.000Z,1.04
2023-02-19T01:24:06.153Z,1.04
2023-02-19T01:25:06.251Z,1.04
2023-02-19T01:26:06.358Z,1.04
2023-02-19T01:27:06.449Z,1.04
2023-02-19T01:28:06.603Z,1.04
2023-02-19T01:29:06.706Z,1.04
2023-02-19T01:30:06.843Z,1.04
2023-02-19T01:31:07.089Z,1.04
2023-02-19T01:32:07.252Z,1.04
2023-02-19T01:33:07.225Z,1.04
2023-02-19T01:34:07.374Z,1.04
2023-02-19T01:35:07.520Z,1.04
2023-02-19T01:36:07.634Z,1.04
2023-02-19T01:37:07.720Z,1.04
2023-02-19T01:38:07.829Z,1.04
2023-02-19T01:39:07.946Z,1.04
2023-02-19T01:40:08.074Z,1.04
2023-02-19T01:41:08.605Z,1.04
2023-02-19T01:42:08.334Z,1.04
2023-02-19T01:43:08.481Z,1.04
2023-02-19T01:44:08.586Z,1.04
2023-02-19T01:45:08.691Z,1.04
2023-02-19T01:46:08.783Z,1.04
2023-02-19T01:47:08.942Z,1.04
2023-02-19T01:48:09.046Z,1.04
2023-02-19T01:49:09.142Z,1.04
2023-02-19T01:50:09.304Z,1.04
2023-02-19T01:51:09.650Z,1.04
2023-02-19T01:52:09.497Z,1.04
2023-02-19T01:53:09.601Z,1.04
2023-02-19T01:54:09.750Z,1.04
2023-02-19T01:55:09.857Z,1.04
2023-02-19T01:56:09.997Z,1.04
2023-02-19T01:57:10.124Z,1.04
2023-02-19T01:58:10.286Z,1.04
2023-02-19T01:59:10.408Z,1.04
2023-02-19T02:00:10.569Z,1.04
2023-02-19T02:01:11.077Z,1.04
2023-02-19T02:02:10.879Z,1.04
2023-02-19T02:03:10.909Z,1.04
2023-02-19T02:04:11.167Z,1.04
2023-02-19T02:05:11.103Z,1.04
2023-02-19T02:06:11.302Z,1.04
2023-02-19T02:07:11.424Z,1.04
2023-02-19T02:08:11.522Z,1.04
2023-02-19T02:09:11.645Z,1.04
2023-02-19T02:10:11.772Z,1.04
2023-02-19T02:11:12.147Z,1.04
2023-02-19T02:12:12.035Z,1.04
2023-02-19T02:13:12.140Z,1.04
2023-02-19T02:14:12.290Z,1.04
2023-02-19T02:15:12.386Z,1.04
2023-02-19T02:16:12.584Z,1.04
2023-02-19T02:17:12.651Z,1.04
2023-02-19T02:18:12.733Z,1.04
2023-02-19T02:19:12.844Z,1.04
2023-02-19T02:20:12.957Z,1.04
2023-02-19T02:21:13.098Z,1.04
2023-02-19T02:22:13.201Z,1.04
2023-02-19T02:23:13.341Z,1.04
2023-02-19T02:24:13.500Z,1.04
2023-02-19T02:25:13.617Z,1.04
2023-02-19T02:26:13.704Z,1.04
2023-02-19T02:27:13.850Z,1.04
2023-02-19T02:28:13.958Z,1.04
2023-02-19T02:29:14.064Z,1.04
2023-02-19T02:30:14.198Z,1.04
2023-02-19T02:31:14.706Z,1.04
2023-02-19T02:32:14.437Z,1.04
2023-02-19T02:33:14.467Z,1.04
2023-02-19T02:34:14.611Z,1.04
2023-02-19T02:35:14.719Z,1.04
2023-02-19T02:36:14.823Z,1.04
2023-02-19T02:37:14.916Z,1.04
2023-02-19T02:38:15.039Z,1.04
2023-02-19T02:39:15.119Z,1.04
2023-02-19T02:40:15.219Z,1.04
2023-02-19T02:41:15.371Z,1.04
2023-02-19T02:42:15.474Z,1.04
2023-02-19T02:43:15.601Z,1.04
2023-02-19T02:44:15.726Z,1.04
2023-02-19T02:45:15.824Z,1.04
2023-02-19T02:46:15.939Z,1.04
2023-02-19T02:47:16.082Z,1.04
2023-02-19T02:48:16.235Z,1.04
2023-02-19T02:49:16.331Z,1.04
2023-02-19T02:50:16.495Z,1.04
2023-02-19T02:51:16.636Z,1.04
2023-02-19T02:52:16.810Z,1.04
2023-02-19T02:53:16.937Z,1.04
2023-02-19T02:54:17.084Z,1.04
2023-02-19T02:55:17.282Z,1.04
2023-02-19T02:56:17.504Z,1.04
2023-02-19T02:57:17.551Z,1.04
2023-02-19T02:58:17.985Z,1.04
2023-02-19T02:59:18.118Z,1.04
2023-02-19T03:00:17.968Z,1.04
2023-02-19T03:01:18.167Z,1.04
2023-02-19T03:02:18.289Z,1.04
2023-02-19T03:03:18.368Z,1.04
2023-02-19T03:04:18.461Z,1.04
2023-02-19T03:05:18.557Z,1.04
2023-02-19T03:06:18.652Z,1.04
2023-02-19T03:07:18.756Z,1.04
2023-02-19T03:08:18.876Z,1.04
2023-02-19T03:09:18.987Z,1.04
2023-02-19T03:10:19.109Z,1.04
2023-02-19T03:11:19.214Z,1.04
2023-02-19T03:12:19.325Z,1.04
2023-02-19T03:13:19.409Z,1.04
2023-02-19T03:14:19.572Z,1.04
2023-02-19T03:15:19.617Z,1.04
2023-02-19T03:16:19.839Z,1.04
2023-02-19T03:17:19.925Z,1.04
2023-02-19T03:18:20.077Z,1.04
2023-02-19T03:19:20.218Z,1.04
2023-02-19T03:20:20.325Z,1.04
2023-02-19T03:21:20.481Z,1.04
2023-02-19T03:22:20.626Z,1.04
2023-02-19T03:23:20.733Z,1.04
2023-02-19T03:24:20.831Z,1.04
2023-02-19T03:25:20.943Z,1.04
2023-02-19T03:26:21.087Z,1.04
2023-02-19T03:27:21.183Z,1.04
2023-02-19T03:28:21.288Z,1.04
2023-02-19T03:29:21.392Z,1.04
2023-02-19T03:30:21.551Z,1.04
2023-02-19T03:31:21.679Z,1.04
2023-02-19T03:32:21.802Z,1.04
2023-02-19T03:33:21.906Z,1.04
2023-02-19T03:34:22.005Z,1.04
2023-02-19T03:35:22.105Z,1.04
2023-02-19T03:36:22.254Z,1.04
2023-02-19T03:37:22.408Z,1.04
2023-02-19T03:38:22.501Z,1.04
2023-02-19T03:39:22.612Z,1.04
2023-02-19T03:40:22.752Z,1.04
2023-02-19T03:41:22.856Z,1.04
2023-02-19T03:42:22.966Z,1.04
2023-02-19T03:43:23.108Z,1.04
2023-02-19T03:44:23.214Z,1.04
2023-02-19T03:45:23.319Z,1.04
2023-02-19T03:46:23.456Z,1.04
2023-02-19T03:47:23.507Z,1.04
2023-02-19T03:48:23.633Z,1.04
2023-02-19T03:49:23.740Z,1.04
2023-02-19T03:50:23.822Z,1.04
2023-02-19T03:51:23.979Z,1.04
2023-02-19T03:52:24.117Z,1.04
2023-02-19T03:53:24.229Z,1.04
2023-02-19T03:54:24.336Z,1.04
2023-02-19T03:55:24.459Z,1.04
2023-02-19T03:56:24.537Z,1.04
2023-02-19T03:57:24.696Z,1.04
2023-02-19T03:58:24.852Z,1.04
2023-02-19T03:59:24.946Z,1.04
2023-02-19T04:00:25.085Z,1.04
2023-02-19T04:01:25.238Z,1.04
2023-02-19T04:02:25.409Z,1.04
2023-02-19T04:03:25.451Z,1.04
2023-02-19T04:04:25.622Z,1.04
2023-02-19T04:05:25.695Z,1.04
2023-02-19T04:06:25.802Z,1.04
2023-02-19T04:07:25.899Z,1.04
2023-02-19T04:08:25.998Z,1.04
2023-02-19T04:09:26.152Z,1.04
2023-02-19T04:10:26.256Z,1.04
2023-02-19T04:11:26.349Z,1.04
2023-02-19T04:12:26.455Z,1.04
2023-02-19T04:13:26.553Z,1.04
2023-02-19T04:14:26.665Z,1.04
2023-02-19T04:15:26.762Z,1.04
2023-02-19T04:16:26.927Z,1.04
2023-02-19T04:17:27.025Z,1.04
2023-02-19T04:18:27.174Z,1.04
2023-02-19T04:19:27.320Z,1.04
2023-02-19T04:20:27.418Z,1.04
2023-02-19T04:21:27.519Z,1.04
2023-02-19T04:22:27.631Z,1.04
2023-02-19T04:23:27.721Z,1.04
2023-02-19T04:24:27.821Z,1.04
2023-02-19T04:25:27.987Z,1.04
2023-02-19T04:26:28.148Z,1.04
2023-02-19T04:27:28.256Z,1.04
2023-02-19T04:28:28.392Z,1.04
2023-02-19T04:29:28.497Z,1.04
2023-02-19T04:30:28.772Z,1.04
2023-02-19T04:31:28.891Z,1.04
2023-02-19T04:32:28.889Z,1.04
2023-02-19T04:33:29.032Z,1.04
2023-02-19T04:34:29.143Z,1.04
2023-02-19T04:35:29.233Z,1.04
2023-02-19T04:36:29.333Z,1.04
2023-02-19T04:37:29.505Z,1.04
2023-02-19T04:38:29.591Z,1.04
2023-02-19T04:39:29.746Z,1.04
2023-02-19T04:40:29.894Z,1.04
2023-02-19T04:41:30.000Z,1.04
2023-02-19T04:42:30.100Z,1.04
2023-02-19T04:43:30.191Z,1.04
2023-02-19T04:44:30.297Z,1.04
2023-02-19T04:45:30.402Z,1.04
2023-02-19T04:46:30.624Z,1.04
2023-02-19T04:47:30.656Z,1.04
2023-02-19T04:48:30.802Z,1.04
2023-02-19T04:49:30.897Z,1.04
2023-02-19T04:50:31.005Z,1.04
2023-02-19T04:51:31.112Z,1.04
2023-02-19T04:52:31.265Z,1.04
2023-02-19T04:53:31.365Z,1.04
2023-02-19T04:54:31.469Z,1.04
2023-02-19T04:55:31.560Z,1.04
2023-02-19T04:56:31.688Z,1.04
2023-02-19T04:57:31.772Z,1.04
2023-02-19T04:58:31.876Z,1.04
2023-02-19T04:59:31.975Z,1.04
2023-02-19T05:00:32.136Z,1.04
2023-02-19T05:01:32.277Z,1.04
2023-02-19T05:02:32.327Z,1.04
2023-02-19T05:03:32.481Z,1.04
2023-02-19T05:04:32.676Z,1.04
2023-02-19T05:05:32.684Z,1.04
2023-02-19T05:06:32.799Z,1.04
2023-02-19T05:07:32.931Z,1.04
2023-02-19T05:08:33.031Z,1.04
2023-02-19T05:09:33.130Z,1.04
2023-02-19T05:10:33.293Z,1.04
2023-02-19T05:11:33.396Z,1.04
2023-02-19T05:12:33.545Z,1.04
2023-02-19T05:13:33.737Z,1.04
2023-02-19T05:14:33.798Z,1.04
2023-02-19T05:15:33.909Z,1.04
2023-02-19T05:16:34.047Z,1.04
2023-02-19T05:17:34.146Z,1.04
2023-02-19T05:18:34.241Z,1.04
2023-02-19T05:19:34.346Z,1.04
2023-02-19T05:20:34.451Z,1.04
2023-02-19T05:21:34.612Z,1.04
2023-02-19T05:22:34.708Z,1.04
2023-02-19T05:23:34.820Z,1.04
2023-02-19T05:24:34.962Z,1.04
2023-02-19T05:25:35.060Z,1.04
2023-02-19T05:26:35.179Z,1.04
2023-02-19T05:27:35.257Z,1.04
2023-02-19T05:28:35.407Z,1.04
2023-02-19T05:29:35.520Z,1.04
2023-02-19T05:30:35.753Z,1.04
2023-02-19T05:31:35.859Z,1.04
2023-02-19T05:32:35.895Z,1.04
2023-02-19T05:33:36.020Z,1.04
2023-02-19T05:34:36.139Z,1.04
2023-02-19T05:35:36.222Z,1.04
2023-02-19T05:36:36.331Z,1.04
2023-02-19T05:37:36.419Z,1.04
2023-02-19T05:38:36.520Z,1.04
2023-02-19T05:39:36.633Z,1.04
2023-02-19T05:40:36.779Z,1.04
2023-02-19T05:41:36.930Z,1.04
2023-02-19T05:42:37.046Z,1.04
2023-02-19T05:43:37.195Z,1.04
2023-02-19T05:44:37.285Z,2
2023-02-19T05:45:37.388Z,2
2023-02-19T05:46:37.527Z,2
2023-02-19T05:47:37.595Z,2
2023-02-19T05:48:37.706Z,2
2023-02-19T05:49:37.789Z,2
2023-02-19T05:50:39.764Z,3.04
2023-02-19T05:51:38.044Z,3.04
2023-02-19T05:52:38.195Z,4
2023-02-19T05:53:38.359Z,4
2023-02-19T05:54:38.458Z,6
2023-02-19T05:55:38.549Z,7.04
2023-02-19T05:56:38.704Z,8
2023-02-19T05:57:38.805Z,8
2023-02-19T05:58:38.901Z,8
2023-02-19T05:59:39.021Z,11.04
2023-02-19T06:00:39.156Z,17.04
2023-02-19T06:01:39.307Z,20
2023-02-19T06:02:39.455Z,21.04
2023-02-19T06:03:39.569Z,22
2023-02-19T06:04:39.668Z,24
2023-02-19T06:05:39.819Z,34
2023-02-19T06:06:39.972Z,43.04
2023-02-19T06:07:40.067Z,37.04
2023-02-19T06:08:40.173Z,31.04
2023-02-19T06:09:40.318Z,32
2023-02-19T06:10:40.476Z,44
2023-02-19T06:11:40.581Z,57.04
2023-02-19T06:12:40.721Z,60
2023-02-19T06:13:40.877Z,72
2023-02-19T06:14:40.999Z,96
2023-02-19T06:15:41.096Z,98
2023-02-19T06:16:41.226Z,93.04
2023-02-19T06:17:41.330Z,71.04
2023-02-19T06:18:41.429Z,67.04
2023-02-19T06:19:41.610Z,84
2023-02-19T06:20:41.749Z,76
2023-02-19T06:21:41.900Z,82
2023-02-19T06:22:42.054Z,79.04
2023-02-19T06:23:42.201Z,76
2023-02-19T06:24:42.380Z,80
2023-02-19T06:25:42.493Z,100
2023-02-19T06:26:42.642Z,71.04
2023-02-19T06:27:42.760Z,57.04
2023-02-19T06:28:43.166Z,71.04
2023-02-19T06:29:43.050Z,108
2023-02-19T06:30:43.162Z,111.04
2023-02-19T06:31:43.336Z,96
2023-02-19T06:32:43.401Z,75.04
2023-02-19T06:33:43.557Z,82
2023-02-19T06:34:43.673Z,81.04
2023-02-19T06:35:43.760Z,92
2023-02-19T06:36:43.866Z,85.04
2023-02-19T06:37:44.013Z,85.04
2023-02-19T06:38:44.144Z,93.04
2023-02-19T06:39:44.273Z,115.04
2023-02-19T06:40:44.370Z,122
2023-02-19T06:41:44.493Z,143.04
2023-02-19T06:42:44.639Z,164
2023-02-19T06:43:44.730Z,179.04
2023-02-19T06:44:44.878Z,289.12
2023-02-19T06:45:44.982Z,387.2
2023-02-19T06:46:45.153Z,444.16
2023-02-19T06:47:45.292Z,444.16
2023-02-19T06:48:45.447Z,410.24
2023-02-19T06:49:45.591Z,379.2
2023-02-19T06:50:45.784Z,341.12
2023-02-19T06:51:45.890Z,310.08
2023-02-19T06:52:45.997Z,296
2023-02-19T06:53:46.146Z,317.12
2023-02-19T06:54:46.261Z,334.08
2023-02-19T06:55:46.348Z,329.28
2023-02-19T06:56:47.163Z,311.04
2023-02-19T06:57:46.554Z,298.08
2023-02-19T06:58:46.645Z,290.08
2023-02-19T06:59:46.774Z,259.04
2023-02-19T07:00:46.958Z,243.04
2023-02-19T07:01:47.005Z,237.12
2023-02-19T07:02:47.158Z,278.08
2023-02-19T07:03:47.272Z,324
2023-02-19T07:04:47.402Z,431.04
2023-02-19T07:05:47.515Z,522.24
2023-02-19T07:06:47.617Z,571.2
2023-02-19T07:07:47.706Z,611.2
2023-02-19T07:08:47.811Z,706.56
2023-02-19T07:09:47.908Z,752
2023-02-19T07:10:48.057Z,718.08
2023-02-19T07:11:48.163Z,704
2023-02-19T07:12:48.314Z,676.48
2023-02-19T07:13:48.465Z,663.04
2023-02-19T07:14:48.625Z,617.28
2023-02-19T07:15:50.502Z,581.12
2023-02-19T07:16:48.851Z,742.4
2023-02-19T07:17:48.934Z,903.04
2023-02-19T07:18:49.020Z,1022.08
2023-02-19T07:19:49.112Z,977.28
2023-02-19T07:20:49.313Z,963.2
2023-02-19T07:21:49.415Z,933.12
2023-02-19T07:22:49.582Z,951.04
2023-02-19T07:23:49.697Z,841.6
2023-02-19T07:24:49.826Z,791.04
2023-02-19T07:25:49.930Z,766.08
2023-02-19T07:26:50.079Z,899.2
2023-02-19T07:27:50.180Z,1216
2023-02-19T07:28:50.300Z,1255.04
2023-02-19T07:29:50.395Z,1158.4
2023-02-19T07:30:50.548Z,1222.4
2023-02-19T07:31:50.693Z,1030.4
2023-02-19T07:32:50.742Z,818.56
2023-02-19T07:33:50.894Z,797.44
2023-02-19T07:34:51.055Z,837.12
2023-02-19T07:35:51.197Z,1109.12
2023-02-19T07:36:51.359Z,1493.76
2023-02-19T07:37:51.458Z,1410.56
2023-02-19T07:38:51.561Z,1242.24
2023-02-19T07:39:51.655Z,1491.2
2023-02-19T07:40:51.807Z,1652.48
2023-02-19T07:41:51.965Z,2013.44
2023-02-19T07:42:52.113Z,2434.56
2023-02-19T07:43:52.220Z,2415.36
2023-02-19T07:44:52.317Z,2247.68
2023-02-19T07:45:52.525Z,2631.68
2023-02-19T07:46:52.564Z,2209.28
2023-02-19T07:47:52.669Z,2254.08
2023-02-19T07:48:52.789Z,2151.68
2023-02-19T07:49:52.922Z,1971.2
2023-02-19T07:50:53.023Z,1843.2
2023-02-19T07:51:53.128Z,1678.08
2023-02-19T07:52:53.240Z,1797.12
2023-02-19T07:53:53.402Z,1848.32
2023-02-19T07:54:53.530Z,1843.2
2023-02-19T07:55:53.681Z,2432
2023-02-19T07:56:53.833Z,2731.52
2023-02-19T07:57:53.930Z,3182.08
2023-02-19T07:58:54.035Z,3379.2
2023-02-19T07:59:54.196Z,3392
2023-02-19T08:00:54.371Z,3307.52
2023-02-19T08:01:54.445Z,2543.36
2023-02-19T08:02:54.549Z,2080
2023-02-19T08:03:54.691Z,2126.08
2023-02-19T08:04:54.795Z,1838.08
2023-02-19T08:05:54.895Z,1954.56
2023-02-19T08:06:55.046Z,1882.88
2023-02-19T08:07:55.157Z,1798.4
2023-02-19T08:08:57.058Z,1660.16
2023-02-19T08:09:55.349Z,1767.68
2023-02-19T08:10:55.453Z,1824
2023-02-19T08:11:55.567Z,2370.56
2023-02-19T08:12:55.703Z,3389.44
2023-02-19T08:13:55.812Z,4712.96
2023-02-19T08:14:55.958Z,4052.48
2023-02-19T08:15:59.628Z,3005.44
2023-02-19T08:16:56.249Z,2780.16
2023-02-19T08:17:56.315Z,2790.4
2023-02-19T08:18:56.409Z,2836.48
2023-02-19T08:19:56.517Z,2565.12
2023-02-19T08:20:56.628Z,2458.88
2023-02-19T08:21:56.768Z,2334.72
2023-02-19T08:22:56.875Z,2443.52
2023-02-19T08:23:57.022Z,2327.04
2023-02-19T08:24:57.124Z,1937.92
2023-02-19T08:25:57.275Z,1813.76
2023-02-19T08:26:57.382Z,1530.88
2023-02-19T08:27:57.527Z,1491.2
2023-02-19T08:28:57.676Z,1468.16
2023-02-19T08:29:57.784Z,1391.36
2023-02-19T08:30:57.900Z,1384.96
2023-02-19T08:31:57.997Z,1625.6
2023-02-19T08:32:58.130Z,1802.24
2023-02-19T08:33:58.283Z,1729.28
2023-02-19T08:34:58.443Z,2076.16
2023-02-19T08:35:58.542Z,2810.88
2023-02-19T08:36:58.635Z,2913.28
2023-02-19T08:37:58.814Z,2606.08
2023-02-19T08:38:58.936Z,2772.48
2023-02-19T08:39:59.038Z,2391.04
2023-02-19T08:40:59.199Z,2341.12
2023-02-19T08:41:59.348Z,2301.44
2023-02-19T08:42:59.704Z,2278.4
2023-02-19T08:43:59.549Z,1930.24
2023-02-19T08:44:59.705Z,1642.24
2023-02-19T08:45:59.885Z,1679.36
2023-02-19T08:46:59.962Z,1989.12
2023-02-19T08:48:00.064Z,2051.84
2023-02-19T08:49:00.151Z,1652.48
2023-02-19T08:50:00.311Z,2033.92
2023-02-19T08:51:00.431Z,2442.24
2023-02-19T08:52:00.504Z,2688
2023-02-19T08:53:00.622Z,3164.16
2023-02-19T08:54:01.018Z,3427.84
2023-02-19T08:55:00.874Z,3330.56
2023-02-19T08:56:00.960Z,3015.68
2023-02-19T08:57:01.059Z,1971.2
2023-02-19T08:58:01.169Z,1747.2
2023-02-19T08:59:01.277Z,2941.44
2023-02-19T09:00:01.438Z,3130.88
2023-02-19T09:01:01.618Z,3205.12
2023-02-19T09:02:01.729Z,3235.84
2023-02-19T09:03:01.835Z,2862.08
2023-02-19T09:04:01.950Z,2823.68
2023-02-19T09:05:02.030Z,2620.16
2023-02-19T09:06:02.125Z,1889.28
2023-02-19T09:07:02.231Z,1895.68
2023-02-19T09:08:02.388Z,2030.08
2023-02-19T09:09:02.525Z,2342.4
2023-02-19T09:10:02.683Z,2828.8
2023-02-19T09:11:02.786Z,3796.48
2023-02-19T09:12:02.893Z,4654.08
2023-02-19T09:13:03.032Z,5519.36
2023-02-19T09:14:03.187Z,5294.08
2023-02-19T09:15:03.296Z,5214.72
2023-02-19T09:16:03.487Z,5099.52
2023-02-19T09:17:03.505Z,4421.12
2023-02-19T09:18:03.606Z,4152.32
2023-02-19T09:19:03.715Z,4472.32
2023-02-19T09:20:03.868Z,5427.2
2023-02-19T09:21:03.949Z,5606.4
2023-02-19T09:22:04.098Z,4805.12
2023-02-19T09:23:04.257Z,4252.16
2023-02-19T09:24:04.364Z,3822.08
2023-02-19T09:25:04.530Z,3934.72
2023-02-19T09:26:04.671Z,4006.4
2023-02-19T09:27:04.802Z,3694.08
2023-02-19T09:28:04.921Z,3650.56
2023-02-19T09:29:05.018Z,3919.36
2023-02-19T09:30:05.137Z,4659.2
2023-02-19T09:31:05.364Z,5504
2023-02-19T09:32:05.378Z,5708.8
2023-02-19T09:33:05.487Z,5376
2023-02-19T09:34:05.618Z,5324.8
2023-02-19T09:35:05.721Z,5309.44
2023-02-19T09:36:05.829Z,5096.96
2023-02-19T09:37:05.939Z,6425.6
2023-02-19T09:38:06.077Z,5847.04
2023-02-19T09:39:06.179Z,5580.8
2023-02-19T09:40:06.280Z,5591.04
2023-02-19T09:41:06.383Z,5278.72
2023-02-19T09:42:06.533Z,5137.92
2023-02-19T09:43:06.638Z,4134.4
2023-02-19T09:44:06.796Z,3855.36
2023-02-19T09:45:06.941Z,4014.08
2023-02-19T09:46:07.088Z,4352
2023-02-19T09:47:07.196Z,5283.84
2023-02-19T09:48:07.289Z,5299.2
2023-02-19T09:49:07.651Z,5273.6
2023-02-19T09:50:07.523Z,5035.52
2023-02-19T09:51:07.674Z,4933.12
2023-02-19T09:52:07.796Z,5117.44
2023-02-19T09:53:07.897Z,5186.56
2023-02-19T09:54:08.011Z,5015.04
2023-02-19T09:55:08.161Z,4984.32
2023-02-19T09:56:08.293Z,4610.56
2023-02-19T09:57:08.410Z,4474.88
2023-02-19T09:58:08.500Z,4605.44
2023-02-19T09:59:08.602Z,4979.2
2023-02-19T10:00:10.655Z,5355.52
2023-02-19T10:01:09.088Z,5109.76
2023-02-19T10:02:08.956Z,4922.88
2023-02-19T10:03:09.069Z,4876.8
2023-02-19T10:04:09.170Z,4477.44
2023-02-19T10:05:09.305Z,4426.24
2023-02-19T10:06:11.226Z,4636.16
2023-02-19T10:07:09.571Z,4718.08
2023-02-19T10:08:09.675Z,4533.76
2023-02-19T10:09:09.831Z,3950.08
2023-02-19T10:10:09.928Z,5299.2
2023-02-19T10:11:10.380Z,5457.92
2023-02-19T10:12:10.220Z,4515.84
2023-02-19T10:13:10.224Z,3878.4
2023-02-19T10:14:10.326Z,4147.2
2023-02-19T10:15:10.481Z,4339.2
2023-02-19T10:16:10.650Z,4992
2023-02-19T10:17:10.725Z,4915.2
2023-02-19T10:18:11.285Z,4096
2023-02-19T10:19:10.950Z,3601.92
2023-02-19T10:20:11.032Z,3394.56
2023-02-19T10:21:11.451Z,3776
2023-02-19T10:22:11.228Z,3619.84
2023-02-19T10:23:11.353Z,4449.28
2023-02-19T10:24:11.485Z,4989.44
2023-02-19T10:25:11.593Z,5565.44
2023-02-19T10:26:11.746Z,6010.88
2023-02-19T10:27:11.863Z,6051.84
2023-02-19T10:28:12.004Z,6405.12
2023-02-19T10:29:12.106Z,6277.12
2023-02-19T10:30:12.291Z,5790.72
2023-02-19T10:31:12.689Z,5734.4
2023-02-19T10:32:12.534Z,6266.88
2023-02-19T10:33:12.584Z,6640.64
2023-02-19T10:34:12.703Z,6415.36
2023-02-19T10:35:12.819Z,6912
2023-02-19T10:36:12.917Z,6318.08
2023-02-19T10:37:13.009Z,6082.56
2023-02-19T10:38:13.115Z,6318.08
2023-02-19T10:39:13.215Z,6195.2
2023-02-19T10:40:13.337Z,6169.6
2023-02-19T10:41:13.483Z,5780.48
2023-02-19T10:42:13.564Z,5575.68
2023-02-19T10:43:13.666Z,6092.8
2023-02-19T10:44:13.788Z,6666.24
2023-02-19T10:45:13.925Z,6563.84
2023-02-19T10:46:14.037Z,6942.72
2023-02-19T10:47:14.143Z,7357.44
2023-02-19T10:48:14.284Z,7152.64
2023-02-19T10:49:14.383Z,7234.56
2023-02-19T10:50:14.492Z,7726.08
2023-02-19T10:51:14.581Z,9676.8
2023-02-19T10:52:14.695Z,14202.88
2023-02-19T10:53:14.786Z,14458.88
2023-02-19T10:54:14.933Z,13107.199
2023-02-19T10:55:15.091Z,12769.279
2023-02-19T10:56:15.198Z,12021.76
2023-02-19T10:57:15.288Z,13772.8
2023-02-19T10:58:15.403Z,15226.88
2023-02-19T10:59:15.544Z,17817.6
2023-02-19T11:00:15.637Z,20019.2
2023-02-19T11:01:15.750Z,19568.64
2023-02-19T11:02:15.902Z,17776.64
2023-02-19T11:03:15.996Z,16558.08
2023-02-19T11:04:16.155Z,15687.68
2023-02-19T11:05:16.187Z,16240.64
2023-02-19T11:06:16.318Z,16240.64
2023-02-19T11:07:16.398Z,14909.439
2023-02-19T11:08:16.569Z,14540.8
2023-02-19T11:09:16.651Z,14387.199
2023-02-19T11:10:17.004Z,13035.52
2023-02-19T11:11:16.951Z,11212.8
2023-02-19T11:12:17.097Z,11612.16
2023-02-19T11:13:17.205Z,14172.16
2023-02-19T11:14:17.304Z,14264.319
2023-02-19T11:15:17.478Z,14080
2023-02-19T11:16:17.659Z,13793.279
2023-02-19T11:17:17.754Z,13199.359
2023-02-19T11:18:17.950Z,12769.279
2023-02-19T11:19:18.147Z,10680.319
2023-02-19T11:20:18.165Z,9308.16
2023-02-19T11:21:18.271Z,9477.12
2023-02-19T11:22:18.420Z,8360.96
2023-02-19T11:23:18.525Z,7838.72
2023-02-19T11:24:18.634Z,9553.92
2023-02-19T11:25:18.734Z,11479.04
2023-02-19T11:26:18.828Z,12093.439
2023-02-19T11:27:19.003Z,13895.68
2023-02-19T11:28:19.132Z,15052.8
2023-02-19T11:29:19.286Z,15616
2023-02-19T11:30:19.407Z,15001.6
2023-02-19T11:31:19.549Z,14991.359
2023-02-19T11:32:19.664Z,14028.8
2023-02-19T11:33:19.692Z,11448.319
2023-02-19T11:34:19.842Z,12830.72
2023-02-19T11:35:19.945Z,15329.279
2023-02-19T11:36:20.064Z,15708.159
2023-02-19T11:37:20.199Z,15534.08
2023-02-19T11:38:20.290Z,15595.52
2023-02-19T11:39:20.460Z,14950.399
2023-02-19T11:40:20.583Z,14970.88
2023-02-19T11:41:20.714Z,14878.72
2023-02-19T11:42:20.853Z,14540.8
2023-02-19T11:43:20.957Z,14520.319
2023-02-19T11:44:21.084Z,14499.84
2023-02-19T11:45:21.217Z,14684.16
2023-02-19T11:46:21.402Z,15861.76
2023-02-19T11:47:21.470Z,17090.56
2023-02-19T11:48:21.580Z,17111.04
2023-02-19T11:49:21.719Z,16926.72
2023-02-19T11:50:21.825Z,16947.2
2023-02-19T11:51:21.976Z,15656.96
2023-02-19T11:52:22.128Z,15544.319
2023-02-19T11:53:22.227Z,15677.439
2023-02-19T11:54:22.326Z,15964.159
2023-02-19T11:55:22.474Z,16353.279
2023-02-19T11:56:22.624Z,16834.56
2023-02-19T11:57:22.788Z,16138.239
2023-02-19T11:58:22.882Z,15104
2023-02-19T11:59:22.988Z,12441.6
2023-02-19T12:00:23.096Z,10772.479
2023-02-19T12:01:23.232Z,10173.439
2023-02-19T12:02:23.334Z,9830.399
2023-02-19T12:03:23.461Z,9159.68
2023-02-19T12:04:23.598Z,8698.88
2023-02-19T12:05:23.726Z,8734.72
2023-02-19T12:06:23.802Z,8232.96
2023-02-19T12:07:23.941Z,8048.64
2023-02-19T12:08:24.101Z,8007.68
2023-02-19T12:09:24.219Z,8908.8
2023-02-19T12:10:24.351Z,9984
2023-02-19T12:11:24.501Z,9856
2023-02-19T12:12:24.693Z,8596.479
2023-02-19T12:13:24.772Z,8980.479
2023-02-19T12:14:25.005Z,10449.92
2023-02-19T12:15:25.066Z,11489.279
2023-02-19T12:16:25.206Z,12646.399
2023-02-19T12:17:25.260Z,13649.92
2023-02-19T12:18:25.365Z,12800
2023-02-19T12:19:25.521Z,10844.16
2023-02-19T12:20:25.659Z,9799.68
2023-02-19T12:21:25.765Z,9323.52
2023-02-19T12:22:25.910Z,9093.12
2023-02-19T12:23:26.013Z,9287.68
2023-02-19T12:24:26.110Z,9999.359
2023-02-19T12:25:26.276Z,10598.399
2023-02-19T12:26:26.362Z,10690.56
2023-02-19T12:27:26.466Z,10076.16
2023-02-19T12:28:26.630Z,9006.08
2023-02-19T12:29:26.789Z,8545.28
2023-02-19T12:30:26.947Z,8826.88
2023-02-19T12:31:27.043Z,9390.08
2023-02-19T12:32:27.083Z,9692.16
2023-02-19T12:33:27.181Z,10670.08
2023-02-19T12:34:27.280Z,12759.04
2023-02-19T12:35:27.431Z,14274.56
2023-02-19T12:36:27.532Z,14714.88
2023-02-19T12:37:27.642Z,14776.319
2023-02-19T12:38:27.735Z,14376.96
2023-02-19T12:39:27.885Z,13967.359
2023-02-19T12:40:27.986Z,13742.08
2023-02-19T12:41:28.090Z,12718.08
2023-02-19T12:42:28.194Z,11601.92
2023-02-19T12:43:28.289Z,11315.2
2023-02-19T12:44:28.439Z,11530.239
2023-02-19T12:45:28.548Z,11847.68
2023-02-19T12:46:28.671Z,12052.479
2023-02-19T12:47:28.791Z,11991.04